sensor_id;sensor_type;location;lat;lon;timestamp;pressure;altitude;pressure_sealevel;temperature;humidity
48089;BME280;33867;50.314;7.802;2024-02-21T00:02:51;101206.75;;;9.40;70.75
48089;BME280;33867;50.314;7.802;2024-02-21T00:06:14;101211.09;;;9.30;71.63
48089;BME280;33867;50.314;7.802;2024-02-21T00:09:34;101216.66;;;9.40;70.77
48089;BME280;33867;50.314;7.802;2024-02-21T00:12:53;101199.69;;;9.15;71.45
48089;BME280;33867;50.314;7.802;2024-02-21T00:16:12;101195.41;;;9.13;70.55
48089;BME280;33867;50.314;7.802;2024-02-21T00:19:34;101187.47;;;9.22;70.74
48089;BME280;33867;50.314;7.802;2024-02-21T00:22:54;101181.72;;;9.16;69.69
48089;BME280;33867;50.314;7.802;2024-02-21T00:26:14;101192.00;;;9.22;69.54
48089;BME280;33867;50.314;7.802;2024-02-21T00:29:33;101198.63;;;9.29;69.55
48089;BME280;33867;50.314;7.802;2024-02-21T00:32:53;101206.22;;;9.11;70.64
48089;BME280;33867;50.314;7.802;2024-02-21T00:36:12;101190.75;;;9.15;70.35
48089;BME280;33867;50.314;7.802;2024-02-21T00:39:31;101203.16;;;9.28;70.00
48089;BME280;33867;50.314;7.802;2024-02-21T00:42:50;101212.19;;;9.27;70.13
48089;BME280;33867;50.314;7.802;2024-02-21T00:46:09;101197.84;;;9.16;70.49
48089;BME280;33867;50.314;7.802;2024-02-21T00:49:28;101205.00;;;9.28;70.15
48089;BME280;33867;50.314;7.802;2024-02-21T00:52:49;101208.56;;;8.92;69.41
48089;BME280;33867;50.314;7.802;2024-02-21T00:56:08;101186.72;;;8.96;69.68
48089;BME280;33867;50.314;7.802;2024-02-21T00:59:28;101175.31;;;9.05;69.60
48089;BME280;33867;50.314;7.802;2024-02-21T01:02:47;101167.75;;;9.11;69.41
48089;BME280;33867;50.314;7.802;2024-02-21T01:06:07;101175.78;;;9.47;69.29
48089;BME280;33867;50.314;7.802;2024-02-21T01:09:26;101178.16;;;9.39;69.34
48089;BME280;33867;50.314;7.802;2024-02-21T01:12:45;101166.81;;;9.35;69.88
48089;BME280;33867;50.314;7.802;2024-02-21T01:16:04;101152.22;;;9.62;68.67
48089;BME280;33867;50.314;7.802;2024-02-21T01:19:23;101153.06;;;9.62;68.02
48089;BME280;33867;50.314;7.802;2024-02-21T01:22:42;101152.13;;;9.04;69.11
48089;BME280;33867;50.314;7.802;2024-02-21T01:26:02;101138.25;;;9.22;67.79
48089;BME280;33867;50.314;7.802;2024-02-21T01:29:22;101144.50;;;9.57;69.17
48089;BME280;33867;50.314;7.802;2024-02-21T01:32:42;101131.78;;;9.48;68.57
48089;BME280;33867;50.314;7.802;2024-02-21T01:36:02;101139.03;;;9.70;68.48
48089;BME280;33867;50.314;7.802;2024-02-21T01:39:22;101143.78;;;9.66;68.38
48089;BME280;33867;50.314;7.802;2024-02-21T01:42:41;101141.72;;;9.35;68.37
48089;BME280;33867;50.314;7.802;2024-02-21T01:46:01;101146.69;;;9.52;68.72
48089;BME280;33867;50.314;7.802;2024-02-21T01:49:21;101143.25;;;9.50;68.13
48089;BME280;33867;50.314;7.802;2024-02-21T01:52:41;101135.66;;;9.44;68.22
48089;BME280;33867;50.314;7.802;2024-02-21T01:56:02;101131.00;;;9.46;68.42
48089;BME280;33867;50.314;7.802;2024-02-21T01:59:24;101131.81;;;9.71;68.92
48089;BME280;33867;50.314;7.802;2024-02-21T02:02:43;101118.50;;;9.80;68.14
48089;BME280;33867;50.314;7.802;2024-02-21T02:06:05;101110.19;;;9.72;68.93
48089;BME280;33867;50.314;7.802;2024-02-21T02:09:25;101097.25;;;9.31;69.71
48089;BME280;33867;50.314;7.802;2024-02-21T02:12:44;101102.28;;;9.35;69.42
48089;BME280;33867;50.314;7.802;2024-02-21T02:16:04;101083.81;;;9.88;68.84
48089;BME280;33867;50.314;7.802;2024-02-21T02:19:24;101097.59;;;9.61;68.96
48089;BME280;33867;50.314;7.802;2024-02-21T02:22:43;101094.56;;;9.88;67.81
48089;BME280;33867;50.314;7.802;2024-02-21T02:26:05;101094.38;;;9.56;69.25
48089;BME280;33867;50.314;7.802;2024-02-21T02:29:26;101081.91;;;9.55;68.80
48089;BME280;33867;50.314;7.802;2024-02-21T02:32:45;101073.75;;;9.79;68.71
48089;BME280;33867;50.314;7.802;2024-02-21T02:36:05;101065.69;;;9.68;68.91
48089;BME280;33867;50.314;7.802;2024-02-21T02:39:24;101068.47;;;9.55;68.62
48089;BME280;33867;50.314;7.802;2024-02-21T02:42:43;101052.13;;;9.70;68.27
48089;BME280;33867;50.314;7.802;2024-02-21T02:46:03;101050.66;;;9.65;68.50
48089;BME280;33867;50.314;7.802;2024-02-21T02:49:25;101052.38;;;9.66;68.81
48089;BME280;33867;50.314;7.802;2024-02-21T02:52:44;101051.78;;;9.74;69.20
48089;BME280;33867;50.314;7.802;2024-02-21T02:56:03;101035.00;;;9.71;69.26
48089;BME280;33867;50.314;7.802;2024-02-21T02:59:22;101014.25;;;9.73;68.69
48089;BME280;33867;50.314;7.802;2024-02-21T03:02:43;101005.41;;;9.71;68.95
48089;BME280;33867;50.314;7.802;2024-02-21T03:06:03;101008.88;;;9.73;68.42
48089;BME280;33867;50.314;7.802;2024-02-21T03:09:23;101006.66;;;9.78;68.54
48089;BME280;33867;50.314;7.802;2024-02-21T03:12:42;101010.78;;;9.93;67.54
48089;BME280;33867;50.314;7.802;2024-02-21T03:16:02;101004.94;;;9.77;68.47
48089;BME280;33867;50.314;7.802;2024-02-21T03:19:21;101002.13;;;9.67;68.35
48089;BME280;33867;50.314;7.802;2024-02-21T03:22:41;100997.84;;;9.87;67.44
48089;BME280;33867;50.314;7.802;2024-02-21T03:26:00;100991.38;;;9.56;67.39
48089;BME280;33867;50.314;7.802;2024-02-21T03:29:20;100998.84;;;9.75;67.43
48089;BME280;33867;50.314;7.802;2024-02-21T03:32:39;101005.19;;;9.74;67.40
48089;BME280;33867;50.314;7.802;2024-02-21T03:35:58;101012.88;;;9.67;66.96
48089;BME280;33867;50.314;7.802;2024-02-21T03:39:17;101015.44;;;9.91;66.59
48089;BME280;33867;50.314;7.802;2024-02-21T03:42:37;100999.91;;;10.06;67.15
48089;BME280;33867;50.314;7.802;2024-02-21T03:45:56;101002.97;;;9.79;67.52
48089;BME280;33867;50.314;7.802;2024-02-21T03:49:15;101001.75;;;9.94;66.96
48089;BME280;33867;50.314;7.802;2024-02-21T03:52:34;100988.34;;;9.72;66.33
48089;BME280;33867;50.314;7.802;2024-02-21T03:55:54;100992.22;;;9.90;65.95
48089;BME280;33867;50.314;7.802;2024-02-21T03:59:14;100994.44;;;9.96;67.99
48089;BME280;33867;50.314;7.802;2024-02-21T04:02:33;100991.09;;;10.04;66.36
48089;BME280;33867;50.314;7.802;2024-02-21T04:05:52;100980.84;;;9.98;65.77
48089;BME280;33867;50.314;7.802;2024-02-21T04:09:11;100981.44;;;10.12;66.39
48089;BME280;33867;50.314;7.802;2024-02-21T04:12:30;100969.59;;;9.81;65.39
48089;BME280;33867;50.314;7.802;2024-02-21T04:15:52;100967.53;;;9.96;66.04
48089;BME280;33867;50.314;7.802;2024-02-21T04:19:11;100959.94;;;9.90;66.27
48089;BME280;33867;50.314;7.802;2024-02-21T04:22:31;100953.59;;;9.91;65.76
48089;BME280;33867;50.314;7.802;2024-02-21T04:25:53;100949.44;;;9.98;66.09
48089;BME280;33867;50.314;7.802;2024-02-21T04:29:13;100939.16;;;9.92;66.44
48089;BME280;33867;50.314;7.802;2024-02-21T04:32:32;100932.91;;;9.91;64.78
48089;BME280;33867;50.314;7.802;2024-02-21T04:35:52;100933.56;;;9.73;65.96
48089;BME280;33867;50.314;7.802;2024-02-21T04:39:13;100940.13;;;10.02;64.80
48089;BME280;33867;50.314;7.802;2024-02-21T04:42:33;100934.88;;;9.89;64.58
48089;BME280;33867;50.314;7.802;2024-02-21T04:45:52;100932.31;;;9.99;65.37
48089;BME280;33867;50.314;7.802;2024-02-21T04:49:12;100919.31;;;10.04;64.38
48089;BME280;33867;50.314;7.802;2024-02-21T04:52:31;100925.34;;;9.96;64.49
48089;BME280;33867;50.314;7.802;2024-02-21T04:55:50;100932.78;;;9.93;64.31
48089;BME280;33867;50.314;7.802;2024-02-21T04:59:09;100935.59;;;10.03;64.36
48089;BME280;33867;50.314;7.802;2024-02-21T05:02:28;100925.38;;;9.85;64.73
48089;BME280;33867;50.314;7.802;2024-02-21T05:05:47;100935.03;;;9.65;65.65
48089;BME280;33867;50.314;7.802;2024-02-21T05:09:07;100928.34;;;9.60;64.61
48089;BME280;33867;50.314;7.802;2024-02-21T05:12:27;100932.22;;;9.67;65.37
48089;BME280;33867;50.314;7.802;2024-02-21T05:15:46;100930.25;;;9.58;64.80
48089;BME280;33867;50.314;7.802;2024-02-21T05:19:06;100916.66;;;9.82;65.06
48089;BME280;33867;50.314;7.802;2024-02-21T05:22:25;100912.38;;;9.90;64.77
48089;BME280;33867;50.314;7.802;2024-02-21T05:25:44;100912.63;;;9.99;64.83
48089;BME280;33867;50.314;7.802;2024-02-21T05:29:04;100906.47;;;10.08;64.34
48089;BME280;33867;50.314;7.802;2024-02-21T05:32:23;100898.66;;;9.93;64.83
48089;BME280;33867;50.314;7.802;2024-02-21T05:35:42;100903.47;;;9.90;64.62
48089;BME280;33867;50.314;7.802;2024-02-21T05:39:02;100895.41;;;9.79;65.19
48089;BME280;33867;50.314;7.802;2024-02-21T05:42:21;100893.56;;;9.90;65.14
48089;BME280;33867;50.314;7.802;2024-02-21T05:45:40;100898.66;;;9.93;65.10
48089;BME280;33867;50.314;7.802;2024-02-21T05:48:59;100886.34;;;9.91;65.46
48089;BME280;33867;50.314;7.802;2024-02-21T05:52:19;100894.41;;;9.91;65.97
48089;BME280;33867;50.314;7.802;2024-02-21T05:55:38;100894.41;;;9.91;66.53
48089;BME280;33867;50.314;7.802;2024-02-21T05:58:58;100900.50;;;9.93;66.21
48089;BME280;33867;50.314;7.802;2024-02-21T06:02:17;100900.19;;;9.86;65.91
48089;BME280;33867;50.314;7.802;2024-02-21T06:05:37;100895.56;;;9.66;65.32
48089;BME280;33867;50.314;7.802;2024-02-21T06:08:57;100891.88;;;9.67;66.54
48089;BME280;33867;50.314;7.802;2024-02-21T06:12:18;100887.63;;;8.97;66.67
48089;BME280;33867;50.314;7.802;2024-02-21T06:15:37;100870.06;;;9.49;66.93
48089;BME280;33867;50.314;7.802;2024-02-21T06:18:56;100866.38;;;9.50;65.48
48089;BME280;33867;50.314;7.802;2024-02-21T06:22:15;100857.59;;;9.48;66.81
48089;BME280;33867;50.314;7.802;2024-02-21T06:25:34;100860.88;;;9.52;66.55
48089;BME280;33867;50.314;7.802;2024-02-21T06:28:53;100870.78;;;9.51;65.78
48089;BME280;33867;50.314;7.802;2024-02-21T06:32:12;100874.22;;;9.42;66.66
48089;BME280;33867;50.314;7.802;2024-02-21T06:35:32;100874.22;;;9.20;66.84
48089;BME280;33867;50.314;7.802;2024-02-21T06:38:51;100875.31;;;9.28;66.96
48089;BME280;33867;50.314;7.802;2024-02-21T06:42:10;100876.41;;;9.15;67.05
48089;BME280;33867;50.314;7.802;2024-02-21T06:45:29;100861.88;;;9.06;67.03
48089;BME280;33867;50.314;7.802;2024-02-21T06:48:49;100874.22;;;9.08;67.44
48089;BME280;33867;50.314;7.802;2024-02-21T06:52:08;100866.41;;;9.05;66.72
48089;BME280;33867;50.314;7.802;2024-02-21T06:55:28;100861.63;;;9.31;66.05
48089;BME280;33867;50.314;7.802;2024-02-21T06:58:46;100855.41;;;9.31;65.53
48089;BME280;33867;50.314;7.802;2024-02-21T07:02:06;100860.75;;;9.42;65.54
48089;BME280;33867;50.314;7.802;2024-02-21T07:05:29;100851.97;;;9.40;66.19
48089;BME280;33867;50.314;7.802;2024-02-21T07:08:51;100861.59;;;9.54;65.60
48089;BME280;33867;50.314;7.802;2024-02-21T07:12:10;100863.88;;;9.70;64.52
48089;BME280;33867;50.314;7.802;2024-02-21T07:15:30;100869.88;;;9.84;63.54
48089;BME280;33867;50.314;7.802;2024-02-21T07:18:49;100868.03;;;9.85;64.41
48089;BME280;33867;50.314;7.802;2024-02-21T07:22:08;100867.78;;;9.88;64.66
48089;BME280;33867;50.314;7.802;2024-02-21T07:25:28;100861.31;;;9.79;63.86
48089;BME280;33867;50.314;7.802;2024-02-21T07:28:47;100859.94;;;9.96;63.54
48089;BME280;33867;50.314;7.802;2024-02-21T07:32:06;100855.59;;;10.05;62.14
48089;BME280;33867;50.314;7.802;2024-02-21T07:35:25;100855.94;;;10.22;63.51
48089;BME280;33867;50.314;7.802;2024-02-21T07:38:45;100847.34;;;10.17;62.18
48089;BME280;33867;50.314;7.802;2024-02-21T07:42:05;100846.69;;;10.36;63.61
48089;BME280;33867;50.314;7.802;2024-02-21T07:45:24;100841.38;;;10.46;62.34
48089;BME280;33867;50.314;7.802;2024-02-21T07:48:45;100848.34;;;10.69;62.70
48089;BME280;33867;50.314;7.802;2024-02-21T07:52:05;100848.13;;;10.40;62.91
48089;BME280;33867;50.314;7.802;2024-02-21T07:55:25;100841.25;;;10.68;62.22
48089;BME280;33867;50.314;7.802;2024-02-21T07:58:44;100829.56;;;10.37;60.12
48089;BME280;33867;50.314;7.802;2024-02-21T08:02:03;100828.91;;;10.45;61.85
48089;BME280;33867;50.314;7.802;2024-02-21T08:05:25;100828.78;;;10.67;61.13
48089;BME280;33867;50.314;7.802;2024-02-21T08:08:44;100815.31;;;10.14;61.61
48089;BME280;33867;50.314;7.802;2024-02-21T08:12:04;100817.72;;;10.70;61.30
48089;BME280;33867;50.314;7.802;2024-02-21T08:15:23;100825.38;;;10.96;61.30
48089;BME280;33867;50.314;7.802;2024-02-21T08:18:47;100806.09;;;11.00;62.23
48089;BME280;33867;50.314;7.802;2024-02-21T08:22:06;100817.19;;;11.37;61.29
48089;BME280;33867;50.314;7.802;2024-02-21T08:25:26;100816.03;;;11.40;61.01
48089;BME280;33867;50.314;7.802;2024-02-21T08:28:45;100805.69;;;11.45;59.67
48089;BME280;33867;50.314;7.802;2024-02-21T08:32:05;100801.91;;;11.67;60.72
48089;BME280;33867;50.314;7.802;2024-02-21T08:35:24;100796.19;;;11.51;60.01
48089;BME280;33867;50.314;7.802;2024-02-21T08:38:43;100797.13;;;11.80;60.39
48089;BME280;33867;50.314;7.802;2024-02-21T08:42:02;100789.19;;;12.08;60.20
48089;BME280;33867;50.314;7.802;2024-02-21T08:45:21;100774.53;;;12.00;57.62
48089;BME280;33867;50.314;7.802;2024-02-21T08:48:41;100777.25;;;12.20;58.33
48089;BME280;33867;50.314;7.802;2024-02-21T08:52:00;100760.78;;;12.70;58.31
48089;BME280;33867;50.314;7.802;2024-02-21T08:55:19;100760.19;;;12.66;59.13
48089;BME280;33867;50.314;7.802;2024-02-21T08:58:40;100751.53;;;12.72;56.29
48089;BME280;33867;50.314;7.802;2024-02-21T09:01:59;100748.69;;;12.64;56.19
48089;BME280;33867;50.314;7.802;2024-02-21T09:05:18;100745.59;;;12.59;56.00
48089;BME280;33867;50.314;7.802;2024-02-21T09:08:37;100740.34;;;12.95;57.46
48089;BME280;33867;50.314;7.802;2024-02-21T09:11:56;100734.47;;;12.99;56.46
48089;BME280;33867;50.314;7.802;2024-02-21T09:15:15;100734.16;;;12.75;55.56
48089;BME280;33867;50.314;7.802;2024-02-21T09:18:34;100728.31;;;13.07;56.46
48089;BME280;33867;50.314;7.802;2024-02-21T09:21:53;100723.69;;;13.44;56.36
48089;BME280;33867;50.314;7.802;2024-02-21T09:25:13;100711.94;;;13.36;56.35
48089;BME280;33867;50.314;7.802;2024-02-21T09:28:34;100717.34;;;13.36;54.84
48089;BME280;33867;50.314;7.802;2024-02-21T09:31:53;100713.34;;;13.58;54.31
48089;BME280;33867;50.314;7.802;2024-02-21T09:35:12;100707.38;;;13.72;53.85
48089;BME280;33867;50.314;7.802;2024-02-21T09:38:32;100681.94;;;13.83;54.12
48089;BME280;33867;50.314;7.802;2024-02-21T09:41:54;100680.66;;;13.87;54.07
48089;BME280;33867;50.314;7.802;2024-02-21T09:45:22;100685.09;;;13.96;53.08
48089;BME280;33867;50.314;7.802;2024-02-21T09:52:07;100686.50;;;14.26;53.31
48089;BME280;33867;50.314;7.802;2024-02-21T09:55:26;100673.88;;;14.60;52.46
48089;BME280;33867;50.314;7.802;2024-02-21T09:58:47;100678.50;;;14.68;51.23
48089;BME280;33867;50.314;7.802;2024-02-21T10:02:06;100675.66;;;14.86;52.85
48089;BME280;33867;50.314;7.802;2024-02-21T10:05:25;100675.13;;;14.74;52.80
48089;BME280;33867;50.314;7.802;2024-02-21T10:08:53;100673.91;;;13.37;51.79
48089;BME280;33867;50.314;7.802;2024-02-21T10:12:13;100670.34;;;13.72;53.70
48089;BME280;33867;50.314;7.802;2024-02-21T10:15:32;100656.97;;;14.41;52.72
48089;BME280;33867;50.314;7.802;2024-02-21T10:18:54;100658.50;;;14.77;52.87
48089;BME280;33867;50.314;7.802;2024-02-21T10:22:15;100643.50;;;14.99;52.53
48089;BME280;33867;50.314;7.802;2024-02-21T10:25:37;100634.78;;;14.79;52.05
48089;BME280;33867;50.314;7.802;2024-02-21T10:29:04;100642.00;;;14.97;51.50
48089;BME280;33867;50.314;7.802;2024-02-21T10:32:23;100626.25;;;15.08;51.92
48089;BME280;33867;50.314;7.802;2024-02-21T10:35:44;100625.28;;;15.50;51.65
48089;BME280;33867;50.314;7.802;2024-02-21T10:39:03;100630.06;;;15.81;49.03
48089;BME280;33867;50.314;7.802;2024-02-21T10:42:22;100623.44;;;15.83;49.74
48089;BME280;33867;50.314;7.802;2024-02-21T10:45:41;100621.81;;;14.99;47.48
48089;BME280;33867;50.314;7.802;2024-02-21T10:49:27;100611.22;;;14.03;48.84
48089;BME280;33867;50.314;7.802;2024-02-21T10:52:53;100612.00;;;14.98;49.52
48089;BME280;33867;50.314;7.802;2024-02-21T10:56:28;100605.78;;;15.55;49.64
48089;BME280;33867;50.314;7.802;2024-02-21T10:59:49;100599.69;;;15.44;50.41
48089;BME280;33867;50.314;7.802;2024-02-21T11:03:09;100591.03;;;15.49;49.19
48089;BME280;33867;50.314;7.802;2024-02-21T11:06:28;100581.94;;;14.75;51.81
48089;BME280;33867;50.314;7.802;2024-02-21T11:09:52;100583.47;;;14.70;49.49
48089;BME280;33867;50.314;7.802;2024-02-21T11:13:11;100586.31;;;12.67;53.46
48089;BME280;33867;50.314;7.802;2024-02-21T11:16:41;100588.34;;;13.98;53.93
48089;BME280;33867;50.314;7.802;2024-02-21T11:20:11;100579.91;;;14.77;52.18
48089;BME280;33867;50.314;7.802;2024-02-21T11:23:31;100578.00;;;14.27;52.70
48089;BME280;33867;50.314;7.802;2024-02-21T11:26:50;100563.03;;;14.15;50.28
48089;BME280;33867;50.314;7.802;2024-02-21T11:30:11;100565.59;;;14.17;49.63
48089;BME280;33867;50.314;7.802;2024-02-21T11:33:33;100560.00;;;14.18;51.68
48089;BME280;33867;50.314;7.802;2024-02-21T11:36:52;100551.41;;;14.57;51.25
48089;BME280;33867;50.314;7.802;2024-02-21T11:40:12;100544.59;;;14.45;49.44
48089;BME280;33867;50.314;7.802;2024-02-21T11:43:31;100541.97;;;14.77;51.85
48089;BME280;33867;50.314;7.802;2024-02-21T11:46:50;100529.13;;;14.96;48.89
48089;BME280;33867;50.314;7.802;2024-02-21T11:50:10;100513.84;;;13.86;50.26
48089;BME280;33867;50.314;7.802;2024-02-21T11:53:29;100501.25;;;14.45;51.87
48089;BME280;33867;50.314;7.802;2024-02-21T11:56:49;100486.25;;;14.83;51.41
48089;BME280;33867;50.314;7.802;2024-02-21T12:00:16;100489.44;;;14.78;49.14
48089;BME280;33867;50.314;7.802;2024-02-21T12:03:36;100477.94;;;15.17;48.73
48089;BME280;33867;50.314;7.802;2024-02-21T12:06:56;100469.78;;;14.60;50.98
48089;BME280;33867;50.314;7.802;2024-02-21T12:10:16;100459.13;;;15.15;48.78
48089;BME280;33867;50.314;7.802;2024-02-21T12:13:35;100443.38;;;15.19;48.09
48089;BME280;33867;50.314;7.802;2024-02-21T12:16:54;100441.50;;;15.11;50.92
48089;BME280;33867;50.314;7.802;2024-02-21T12:20:14;100415.47;;;15.49;49.92
48089;BME280;33867;50.314;7.802;2024-02-21T12:23:34;100418.72;;;15.53;49.11
48089;BME280;33867;50.314;7.802;2024-02-21T12:26:54;100407.25;;;15.82;48.59
48089;BME280;33867;50.314;7.802;2024-02-21T12:30:14;100404.34;;;15.92;48.59
48089;BME280;33867;50.314;7.802;2024-02-21T12:33:33;100398.53;;;15.64;48.43
48089;BME280;33867;50.314;7.802;2024-02-21T12:36:53;100402.00;;;15.17;46.31
48089;BME280;33867;50.314;7.802;2024-02-21T12:40:13;100384.78;;;15.65;49.72
48089;BME280;33867;50.314;7.802;2024-02-21T12:43:32;100376.63;;;14.69;48.89
48089;BME280;33867;50.314;7.802;2024-02-21T12:46:52;100374.41;;;13.73;49.82
48089;BME280;33867;50.314;7.802;2024-02-21T12:50:12;100371.22;;;14.69;50.57
48089;BME280;33867;50.314;7.802;2024-02-21T12:53:31;100370.50;;;14.91;49.92
48089;BME280;33867;50.314;7.802;2024-02-21T12:56:50;100352.19;;;15.10;49.53
48089;BME280;33867;50.314;7.802;2024-02-21T13:00:10;100344.63;;;15.36;49.70
48089;BME280;33867;50.314;7.802;2024-02-21T13:03:30;100336.19;;;15.31;49.00
48089;BME280;33867;50.314;7.802;2024-02-21T13:06:50;100328.13;;;15.54;49.04
48089;BME280;33867;50.314;7.802;2024-02-21T13:10:09;100312.59;;;15.40;48.94
48089;BME280;33867;50.314;7.802;2024-02-21T13:13:28;100310.09;;;15.30;48.31
48089;BME280;33867;50.314;7.802;2024-02-21T13:16:47;100307.44;;;15.06;46.19
48089;BME280;33867;50.314;7.802;2024-02-21T13:20:07;100305.13;;;14.78;48.79
48089;BME280;33867;50.314;7.802;2024-02-21T13:23:27;100297.28;;;14.91;47.29
48089;BME280;33867;50.314;7.802;2024-02-21T13:26:47;100296.66;;;14.73;47.43
48089;BME280;33867;50.314;7.802;2024-02-21T13:30:06;100278.72;;;14.72;48.87
48089;BME280;33867;50.314;7.802;2024-02-21T13:33:27;100253.50;;;15.19;49.72
48089;BME280;33867;50.314;7.802;2024-02-21T13:36:49;100255.53;;;14.70;46.15
48089;BME280;33867;50.314;7.802;2024-02-21T13:40:08;100239.81;;;15.43;48.57
48089;BME280;33867;50.314;7.802;2024-02-21T13:43:33;100241.63;;;15.20;45.04
48089;BME280;33867;50.314;7.802;2024-02-21T13:46:52;100242.16;;;15.15;49.04
48089;BME280;33867;50.314;7.802;2024-02-21T13:50:11;100221.47;;;15.14;48.19
48089;BME280;33867;50.314;7.802;2024-02-21T13:53:31;100214.50;;;15.82;48.67
48089;BME280;33867;50.314;7.802;2024-02-21T13:56:50;100196.47;;;14.49;47.65
48089;BME280;33867;50.314;7.802;2024-02-21T14:00:09;100171.97;;;14.10;47.77
48089;BME280;33867;50.314;7.802;2024-02-21T14:03:32;100185.31;;;14.91;48.86
48089;BME280;33867;50.314;7.802;2024-02-21T14:06:51;100192.41;;;14.37;46.72
48089;BME280;33867;50.314;7.802;2024-02-21T14:10:12;100163.69;;;13.62;47.13
48089;BME280;33867;50.314;7.802;2024-02-21T14:13:31;100154.53;;;13.71;46.70
48089;BME280;33867;50.314;7.802;2024-02-21T14:16:50;100159.97;;;14.76;49.52
48089;BME280;33867;50.314;7.802;2024-02-21T14:20:10;100147.72;;;15.19;47.86
48089;BME280;33867;50.314;7.802;2024-02-21T14:23:29;100135.69;;;15.44;46.38
48089;BME280;33867;50.314;7.802;2024-02-21T14:26:48;100116.88;;;15.43;46.73
48089;BME280;33867;50.314;7.802;2024-02-21T14:30:08;100129.69;;;14.64;46.84
48089;BME280;33867;50.314;7.802;2024-02-21T14:33:29;100122.38;;;14.73;48.88
48089;BME280;33867;50.314;7.802;2024-02-21T14:36:51;100096.13;;;14.73;46.00
48089;BME280;33867;50.314;7.802;2024-02-21T14:40:11;100088.63;;;14.28;47.70
48089;BME280;33867;50.314;7.802;2024-02-21T14:43:30;100095.97;;;14.11;49.25
48089;BME280;33867;50.314;7.802;2024-02-21T14:46:50;100093.31;;;13.70;49.50
48089;BME280;33867;50.314;7.802;2024-02-21T14:50:09;100075.38;;;13.86;50.89
48089;BME280;33867;50.314;7.802;2024-02-21T14:53:30;100054.81;;;14.16;48.57
48089;BME280;33867;50.314;7.802;2024-02-21T14:56:49;100061.00;;;13.77;49.01
48089;BME280;33867;50.314;7.802;2024-02-21T15:00:09;100039.31;;;12.79;50.77
48089;BME280;33867;50.314;7.802;2024-02-21T15:03:29;100045.19;;;12.67;50.61
48089;BME280;33867;50.314;7.802;2024-02-21T15:06:48;100039.09;;;12.65;51.13
48089;BME280;33867;50.314;7.802;2024-02-21T15:10:08;100035.16;;;13.17;50.90
48089;BME280;33867;50.314;7.802;2024-02-21T15:13:27;100026.97;;;12.77;52.21
48089;BME280;33867;50.314;7.802;2024-02-21T15:16:46;100025.19;;;13.67;51.40
48089;BME280;33867;50.314;7.802;2024-02-21T15:20:06;100029.97;;;14.12;51.32
48089;BME280;33867;50.314;7.802;2024-02-21T15:23:28;100022.59;;;13.98;50.83
48089;BME280;33867;50.314;7.802;2024-02-21T15:26:47;100007.56;;;13.87;51.48
48089;BME280;33867;50.314;7.802;2024-02-21T15:30:06;100014.66;;;13.88;51.44
48089;BME280;33867;50.314;7.802;2024-02-21T15:33:26;99995.88;;;13.87;50.57
48089;BME280;33867;50.314;7.802;2024-02-21T15:36:48;99990.19;;;13.65;49.68
48089;BME280;33867;50.314;7.802;2024-02-21T15:40:07;99988.13;;;13.75;50.91
48089;BME280;33867;50.314;7.802;2024-02-21T15:43:26;99977.44;;;13.82;49.12
48089;BME280;33867;50.314;7.802;2024-02-21T15:46:46;99976.88;;;13.95;49.86
48089;BME280;33867;50.314;7.802;2024-02-21T15:50:06;99969.03;;;14.16;50.18
48089;BME280;33867;50.314;7.802;2024-02-21T15:53:25;99969.50;;;13.81;50.93
48089;BME280;33867;50.314;7.802;2024-02-21T15:56:44;99966.34;;;14.08;51.66
48089;BME280;33867;50.314;7.802;2024-02-21T16:00:05;99962.75;;;13.77;51.24
48089;BME280;33867;50.314;7.802;2024-02-21T16:03:29;99942.53;;;13.56;51.10
48089;BME280;33867;50.314;7.802;2024-02-21T16:06:48;99939.72;;;13.81;50.73
48089;BME280;33867;50.314;7.802;2024-02-21T16:10:12;99937.13;;;13.48;50.86
48089;BME280;33867;50.314;7.802;2024-02-21T16:13:31;99932.91;;;13.13;50.69
48089;BME280;33867;50.314;7.802;2024-02-21T16:16:51;99929.31;;;12.23;50.79
48089;BME280;33867;50.314;7.802;2024-02-21T16:20:11;99923.44;;;12.36;52.42
48089;BME280;33867;50.314;7.802;2024-02-21T16:23:34;99914.03;;;12.56;52.29
48089;BME280;33867;50.314;7.802;2024-02-21T16:26:53;99898.81;;;12.96;52.32
48089;BME280;33867;50.314;7.802;2024-02-21T16:30:13;99895.25;;;12.54;51.82
48089;BME280;33867;50.314;7.802;2024-02-21T16:33:32;99900.88;;;12.69;52.91
48089;BME280;33867;50.314;7.802;2024-02-21T16:36:52;99892.53;;;12.30;52.04
48089;BME280;33867;50.314;7.802;2024-02-21T16:40:11;99884.06;;;12.09;53.23
48089;BME280;33867;50.314;7.802;2024-02-21T16:43:30;99875.28;;;11.98;54.62
48089;BME280;33867;50.314;7.802;2024-02-21T16:46:49;99875.69;;;12.85;52.73
48089;BME280;33867;50.314;7.802;2024-02-21T16:50:09;99864.88;;;12.85;51.61
48089;BME280;33867;50.314;7.802;2024-02-21T16:53:28;99866.88;;;12.26;50.83
48089;BME280;33867;50.314;7.802;2024-02-21T16:56:47;99848.66;;;12.12;52.73
48089;BME280;33867;50.314;7.802;2024-02-21T17:00:06;99861.19;;;12.70;52.39
48089;BME280;33867;50.314;7.802;2024-02-21T17:03:30;99843.91;;;11.97;51.93
48089;BME280;33867;50.314;7.802;2024-02-21T17:06:49;99841.94;;;12.40;52.60
48089;BME280;33867;50.314;7.802;2024-02-21T17:10:08;99833.16;;;12.22;53.20
48089;BME280;33867;50.314;7.802;2024-02-21T17:13:27;99827.59;;;11.65;52.37
48089;BME280;33867;50.314;7.802;2024-02-21T17:16:48;99843.22;;;11.53;52.99
48089;BME280;33867;50.314;7.802;2024-02-21T17:20:08;99834.13;;;11.54;52.32
48089;BME280;33867;50.314;7.802;2024-02-21T17:23:27;99818.63;;;11.98;53.41
48089;BME280;33867;50.314;7.802;2024-02-21T17:26:46;99824.19;;;11.55;52.80
48089;BME280;33867;50.314;7.802;2024-02-21T17:30:06;99821.47;;;11.55;53.03
48089;BME280;33867;50.314;7.802;2024-02-21T17:33:27;99814.91;;;11.15;54.18
48089;BME280;33867;50.314;7.802;2024-02-21T17:36:46;99827.25;;;11.00;54.71